Albany, GA (31704)

8:07 PM EDT on May 22, 2015 (GMT -0400)
Southwest Georgia Regional | | Change Station
CLOSE
Current Station
Airport
Location: Albany,
Elevation: 194 ft
Nearby Weather Stations

Elev 194 ft 31.54 °N, 84.19 °W | Updated 14 minutes ago

Clear
Clear
81 °F
Feels Like 81 °F
N
7
Wind Variable Wind from North

Today
High -- | Low -- °F
--% Chance of Precip.
Yesterday
High -- | Low -- °F
Precip. -- in
6:35 AM 8:30 PM
Waxing Crescent, 25% visible
Pressure 30.17 in
Visibility 10.0 miles
Clouds Clear
Dew Point 48 °F
Humidity 31%
Rainfall 0.00 in
Snow Depth Not available.
UV 0 out of 12
Pollen 5.80 out of 12
Air Quality Not available.
Flu Activity Sporadic
METAR KABY 222353Z 01006KT 10SM CLR 27/09 A3017 RMK AO2 SLP214 T02720089 10294 20261 53005

More Conditions Fewer Conditions

Pressure 30.17 in
Visibility 10.0 miles
Clouds Clear
Dew Point 48 °F
Humidity 31%
Rainfall 0.00 in
Snow Depth Not available.
UV 0 out of 12
Pollen 5.80 out of 12
Air Quality Not available.
Flu Activity Sporadic
METAR KABY 222353Z 01006KT 10SM CLR 27/09 A3017 RMK AO2 SLP214 T02720089 10294 20261 53005

More Conditions Fewer Conditions

10-Day Weather Forecast

Almanac

Astronomy

May. 22, 2015 Rise Set
Actual Time
Civil Twilight
Nautical Twilight
Astronomical Twilight
Moon
Length of Visible Light
Length of Day
Tomorrow will be .
, % of the Moon is Illuminated

Today's Extremes

State Highs State Lows

Community

WunderPhotos

Upload Photos

1,823,339 photos uploaded!

WunderBlogs® & News

Nearby

Air Quality

  Air Quality AQ Index Pollutant
Not available.

Snow Depth

Station Depth Elevation

Earthquake Activity

City Distance Mag. Time & Date
Minimum magnitude displayed is 2.5.

Coastal Water Temperatures

Place Temperature

Stations

Nearby Weather Stations

Station Location Temp. Windchill Dew Point Humidity Wind Precip. Elev Updated Type